createdAt,value
2017-03-02T00:00:23.671Z,43.6
2017-03-02T00:02:56.154Z,43.6
2017-03-02T00:05:29.057Z,43.6
2017-03-02T00:08:01.549Z,43.6
2017-03-02T00:10:34.478Z,43.6
2017-03-02T00:13:06.981Z,43.6
2017-03-02T00:15:40.352Z,43.6
2017-03-02T00:18:12.862Z,43.5
2017-03-02T00:20:45.341Z,43.6
2017-03-02T00:23:18.282Z,43.6
2017-03-02T00:25:51.225Z,43.5
2017-03-02T00:28:24.142Z,43.5
2017-03-02T00:30:57.029Z,43.6
2017-03-02T00:33:29.895Z,43.5
2017-03-02T00:36:02.806Z,43.5
2017-03-02T00:38:36.160Z,43.5
2017-03-02T00:41:08.655Z,43.5
2017-03-02T00:43:41.574Z,43.5
2017-03-02T00:46:14.085Z,43.5
2017-03-02T00:48:46.575Z,43.5
2017-03-02T00:51:19.504Z,43.5
2017-03-02T00:53:51.995Z,43.5
2017-03-02T00:56:24.887Z,43.5
2017-03-02T00:58:57.366Z,43.5
2017-03-02T01:01:29.857Z,43.5
2017-03-02T01:04:02.337Z,43.5
2017-03-02T01:06:34.817Z,43.5
2017-03-02T01:09:07.313Z,43.5
2017-03-02T01:11:39.825Z,43.5
2017-03-02T01:14:12.315Z,43.5
2017-03-02T01:16:44.793Z,43.5
2017-03-02T01:19:17.297Z,43.5
2017-03-02T01:21:49.777Z,43.5
2017-03-02T01:24:23.113Z,43.5
2017-03-02T01:26:56.439Z,43.5
2017-03-02T01:29:29.357Z,43.5
2017-03-02T01:32:01.862Z,43.5
2017-03-02T01:34:34.376Z,43.5
2017-03-02T01:37:07.283Z,43.5
2017-03-02T01:39:39.809Z,43.5
2017-03-02T01:42:12.268Z,43.5
2017-03-02T01:44:44.764Z,43.5
2017-03-02T01:47:17.233Z,43.5
2017-03-02T01:49:49.737Z,43.5
2017-03-02T01:52:22.223Z,43.5
2017-03-02T01:54:54.689Z,43.5
2017-03-02T01:57:27.213Z,43.5
2017-03-02T02:00:00.125Z,43.5
2017-03-02T02:02:32.633Z,43.5
2017-03-02T02:05:05.112Z,43.5
2017-03-02T02:07:37.612Z,43.5
2017-03-02T02:10:10.096Z,43.5
2017-03-02T02:12:43.030Z,43.5
2017-03-02T02:15:15.519Z,43.5
2017-03-02T02:17:48.032Z,43.5
2017-03-02T02:20:20.956Z,43.5
2017-03-02T02:22:53.445Z,43.5
2017-03-02T02:25:26.774Z,43.5
2017-03-02T02:27:59.269Z,43.6
2017-03-02T02:30:31.750Z,43.5
2017-03-02T02:33:04.246Z,43.5
2017-03-02T02:35:36.738Z,43.5
2017-03-02T02:38:09.226Z,43.5
2017-03-02T02:40:41.721Z,43.5
2017-03-02T02:43:14.643Z,43.5
2017-03-02T02:45:47.743Z,43.5
2017-03-02T02:48:20.240Z,43.5
2017-03-02T02:50:52.745Z,43.5
2017-03-02T02:53:25.647Z,43.5
2017-03-02T02:55:58.574Z,43.5
2017-03-02T02:58:31.070Z,43.4
2017-03-02T03:01:03.546Z,43.5
2017-03-02T03:03:36.440Z,43.5
2017-03-02T03:06:09.341Z,43.4
2017-03-02T03:08:41.825Z,43.5
2017-03-02T03:11:14.731Z,43.5
2017-03-02T03:13:47.215Z,43.5
2017-03-02T03:16:19.738Z,43.5
2017-03-02T03:18:52.232Z,43.5
2017-03-02T03:21:24.723Z,43.5
2017-03-02T03:23:57.628Z,43.4
2017-03-02T03:26:30.115Z,43.4
2017-03-02T03:29:03.037Z,43.4
2017-03-02T03:31:35.733Z,43.5
2017-03-02T03:34:08.222Z,43.4
2017-03-02T03:36:40.701Z,43.5
2017-03-02T03:39:13.222Z,43.5
2017-03-02T03:41:46.114Z,43.5
2017-03-02T03:44:19.040Z,43.5
2017-03-02T03:46:52.000Z,43.5
2017-03-02T03:49:24.915Z,43.5
2017-03-02T03:51:58.245Z,43.5
2017-03-02T03:54:30.759Z,43.5
2017-03-02T03:57:03.243Z,43.5
2017-03-02T03:59:36.207Z,43.5
2017-03-02T04:02:09.121Z,43.5
2017-03-02T04:04:41.604Z,43.5
2017-03-02T04:07:14.083Z,43.5
2017-03-02T04:09:46.581Z,43.5
2017-03-02T04:12:19.107Z,43.5
2017-03-02T04:14:52.002Z,43.4
2017-03-02T04:17:24.506Z,43.5
2017-03-02T04:19:56.987Z,43.5
2017-03-02T04:22:29.499Z,43.5
2017-03-02T04:25:01.994Z,43.5
2017-03-02T04:27:34.923Z,43.5
2017-03-02T04:30:07.406Z,43.5
2017-03-02T04:32:39.919Z,43.5
2017-03-02T04:35:12.410Z,43.5
2017-03-02T04:37:44.913Z,43.5
2017-03-02T04:40:17.711Z,43.5
2017-03-02T04:42:50.215Z,43.5
2017-03-02T04:45:22.699Z,43.5
2017-03-02T04:47:55.198Z,43.5
2017-03-02T04:50:27.693Z,43.5
2017-03-02T04:53:00.162Z,43.5
2017-03-02T04:55:33.113Z,43.5
2017-03-02T04:58:05.603Z,43.5
2017-03-02T05:00:38.096Z,43.5
2017-03-02T05:03:10.580Z,43.5
2017-03-02T05:05:43.093Z,43.5
2017-03-02T05:08:16.027Z,43.5
2017-03-02T05:10:48.522Z,43.5
2017-03-02T05:13:21.008Z,43.5
2017-03-02T05:15:53.519Z,43.5
2017-03-02T05:18:26.225Z,43.5
2017-03-02T05:20:58.731Z,43.5
2017-03-02T05:23:31.215Z,43.5
2017-03-02T05:26:03.757Z,43.5
2017-03-02T05:28:36.237Z,43.5
2017-03-02T05:31:08.748Z,43.5
2017-03-02T05:33:41.223Z,43.5
2017-03-02T05:36:13.712Z,43.5
2017-03-02T05:38:47.235Z,43.5
2017-03-02T05:41:20.174Z,43.5
2017-03-02T05:43:52.657Z,43.5
2017-03-02T05:46:25.135Z,43.6
2017-03-02T05:48:58.067Z,43.6
2017-03-02T05:51:30.548Z,43.6
2017-03-02T05:54:03.457Z,43.6
2017-03-02T05:56:35.949Z,43.6
2017-03-02T05:59:08.452Z,41.9
2017-03-02T06:01:40.932Z,41.4
2017-03-02T06:04:13.431Z,41.2
2017-03-02T06:06:45.893Z,41.3
2017-03-02T06:09:18.426Z,41.7
2017-03-02T06:11:51.350Z,42.5
2017-03-02T06:14:23.851Z,42.8
2017-03-02T06:16:56.769Z,43.1
2017-03-02T06:19:29.283Z,43.4
2017-03-02T06:22:01.777Z,43.6
2017-03-02T06:24:34.306Z,43.7
2017-03-02T06:27:07.223Z,43.7
2017-03-02T06:29:40.137Z,43.9
2017-03-02T06:32:12.629Z,44
2017-03-02T06:34:45.136Z,44
2017-03-02T06:37:17.605Z,44
2017-03-02T06:39:50.112Z,44
2017-03-02T06:42:22.589Z,44
2017-03-02T06:44:55.941Z,44
2017-03-02T06:47:28.444Z,44
2017-03-02T06:50:00.937Z,43.9
2017-03-02T06:52:33.427Z,44
2017-03-02T06:55:05.910Z,43.9
2017-03-02T06:57:38.416Z,44
2017-03-02T07:00:11.021Z,44.1
2017-03-02T07:02:43.533Z,44.2
2017-03-02T07:05:16.029Z,44.1
2017-03-02T07:07:48.518Z,44.1
